Observation data for Ralls on 01/19/2019      Previous  Date  Next       Current Mesonet Observations  Soil Data  Daily Summary Page  Observations in Plain Language
KRLS 190600Z 34021G30KT 01/M02 A3003 RMK A01 T00071023  RH  081%=      5-min Rain = 0
KRLS 190605Z 34020G26KT 01/M02 A3003 RMK A01 T00051020  RH  084%=      5-min Rain = 0
KRLS 190610Z 33022G33KT 01/M02 A3003 RMK A01 T00071023  RH  081%=      5-min Rain = 0
KRLS 190615Z 33021G27KT 01/M03 A3003 RMK A01 T00071025  RH  080%=      5-min Rain = 0
KRLS 190620Z 33020G27KT 01/M03 A3004 RMK A01 T00061025  RH  080%=      5-min Rain = 0
KRLS 190625Z 34021G29KT 01/M03 A3004 RMK A01 T00051025  RH  081%=      5-min Rain = 0
KRLS 190630Z 34019G27KT 00/M02 A3004 RMK A01 T00041024  RH  082%=      5-min Rain = 0
KRLS 190635Z 34018G28KT 01/M03 A3004 RMK A01 T00051025  RH  081%=      5-min Rain = 0
KRLS 190640Z 34019G25KT 01/M03 A3005 RMK A01 T00071027  RH  079%=      5-min Rain = 0
KRLS 190645Z 34020G27KT 01/M03 A3005 RMK A01 T00071028  RH  078%=      5-min Rain = 0
KRLS 190650Z 33019G25KT 01/M03 A3005 RMK A01 T00051027  RH  080%=      5-min Rain = 0
KRLS 190655Z 33019G29KT 00/M02 A3006 RMK A01 T00041024  RH  082%=      5-min Rain = 0
KRLS 190700Z 33019G26KT 00/M02 A3006 RMK A01 T00041022  RH  084%=      5-min Rain = 0
KRLS 190705Z 33021G26KT 00/M02 A3006 RMK A01 T00031021  RH  084%=      5-min Rain = 0
KRLS 190710Z 33019G25KT 00/M02 A3006 RMK A01 T00021020  RH  086%=      5-min Rain = 0
KRLS 190715Z 33018G25KT 00/M02 A3006 RMK A01 T00031019  RH  085%=      5-min Rain = 0
KRLS 190720Z 33016KT 00/M02 A3006 RMK A01 T00041019  RH  085%=      5-min Rain = 0
KRLS 190725Z 33016KT 01/M02 A3006 RMK A01 T00051019  RH  085%=      5-min Rain = 0
KRLS 190730Z 33017G23KT 01/M02 A3006 RMK A01 T00071021  RH  083%=      5-min Rain = 0
KRLS 190735Z 33017G22KT 01/M02 A3006 RMK A01 T00091022  RH  080%=      5-min Rain = 0
KRLS 190740Z 33018G25KT 01/M02 A3006 RMK A01 T00101022  RH  080%=      5-min Rain = 0
KRLS 190745Z 33017G25KT 01/M02 A3006 RMK A01 T00101022  RH  080%=      5-min Rain = 0
KRLS 190750Z 33018G27KT 01/M02 A3005 RMK A01 T00101023  RH  079%=      5-min Rain = 0
KRLS 190755Z 33020G29KT 01/M02 A3005 RMK A01 T00111024  RH  078%=      5-min Rain = 0
KRLS 190800Z 34021G29KT 01/M03 A3005 RMK A01 T00111027  RH  076%=      5-min Rain = 0
KRLS 190805Z 34022G30KT 01/M03 A3006 RMK A01 T00121030  RH  074%=      5-min Rain = 0
KRLS 190810Z 34022G30KT 01/M03 A3006 RMK A01 T00111031  RH  074%=      5-min Rain = 0
KRLS 190815Z 33022G30KT 01/M03 A3006 RMK A01 T00101032  RH  074%=      5-min Rain = 0
KRLS 190820Z 33021G26KT 01/M03 A3007 RMK A01 T00091032  RH  074%=      5-min Rain = 0
KRLS 190825Z 33018G24KT 01/M03 A3007 RMK A01 T00081031  RH  076%=      5-min Rain = 0
KRLS 190830Z 33019G26KT 01/M03 A3007 RMK A01 T00071031  RH  076%=      5-min Rain = 0
KRLS 190835Z 33020G27KT 01/M03 A3007 RMK A01 T00071033  RH  075%=      5-min Rain = 0
KRLS 190840Z 33020KT 01/M04 A3008 RMK A01 T00051035  RH  075%=      5-min Rain = 0
KRLS 190845Z 33020G28KT 00/M04 A3008 RMK A01 T00041037  RH  075%=      5-min Rain = 0
KRLS 190850Z 33020G25KT 00/M04 A3008 RMK A01 T00021039  RH  074%=      5-min Rain = 0
KRLS 190855Z 33020G25KT 00/M04 A3009 RMK A01 T00021040  RH  074%=      5-min Rain = 0
KRLS 190900Z 33020G25KT 00/M04 A3009 RMK A01 T00011042  RH  073%=      5-min Rain = 0
KRLS 190905Z 34019G25KT 00/M04 A301 RMK A01 T00011043  RH  073%=      5-min Rain = 0
KRLS 190910Z 33019G26KT 00/04 A301 RMK A01 T00000-44  RH  073%=      5-min Rain = 0
KRLS 190915Z 33021G29KT 00/05 A301 RMK A01 T00-00-45  RH  072%=      5-min Rain = 0
KRLS 190920Z 33020G27KT M00/M05 A3011 RMK A01 T10011046  RH  072%=      5-min Rain = 0
KRLS 190925Z 33020G26KT M00/M05 A3011 RMK A01 T10011048  RH  071%=      5-min Rain = 0
KRLS 190930Z 34019G25KT M00/M05 A3011 RMK A01 T10021048  RH  071%=      5-min Rain = 0
KRLS 190935Z 34018G26KT M00/M05 A3012 RMK A01 T10031049  RH  071%=      5-min Rain = 0
KRLS 190940Z 34017G22KT M01/M05 A3012 RMK A01 T10051049  RH  072%=      5-min Rain = 0
KRLS 190945Z 34020G25KT M01/M05 A3012 RMK A01 T10051050  RH  072%=      5-min Rain = 0
KRLS 190950Z 34020G26KT M01/M05 A3012 RMK A01 T10051050  RH  072%=      5-min Rain = 0
KRLS 190955Z 34018G25KT M01/M05 A3012 RMK A01 T10061050  RH  073%=      5-min Rain = 0
KRLS 191000Z 34019G31KT M01/M05 A3012 RMK A01 T10061050  RH  072%=      5-min Rain = 0
KRLS 191005Z 33021G28KT M01/M05 A3012 RMK A01 T10061051  RH  072%=      5-min Rain = 0
KRLS 191010Z 33019G25KT M01/M05 A3012 RMK A01 T10061051  RH  072%=      5-min Rain = 0
KRLS 191015Z 33017G24KT M01/M05 A3013 RMK A01 T10081050  RH  073%=      5-min Rain = 0
KRLS 191020Z 33020G28KT M01/M05 A3013 RMK A01 T10071050  RH  073%=      5-min Rain = 0
KRLS 191025Z 33020G27KT M01/M05 A3013 RMK A01 T10081049  RH  074%=      5-min Rain = 0
KRLS 191030Z 33018G24KT M01/M05 A3014 RMK A01 T10091049  RH  075%=      5-min Rain = 0
KRLS 191035Z 32019G25KT M01/M05 A3014 RMK A01 T10111048  RH  076%=      5-min Rain = 0
KRLS 191040Z 32020G29KT M01/M05 A3014 RMK A01 T10121050  RH  075%=      5-min Rain = 0
KRLS 191045Z 32019G24KT M01/M05 A3015 RMK A01 T10131052  RH  075%=      5-min Rain = 0
KRLS 191050Z 33018G25KT M01/M05 A3015 RMK A01 T10141053  RH  075%=      5-min Rain = 0
KRLS 191055Z 33021G30KT M01/M05 A3015 RMK A01 T10141053  RH  075%=      5-min Rain = 0
KRLS 191100Z 33020G26KT M01/M05 A3015 RMK A01 T10141054  RH  074%=      5-min Rain = 0
KRLS 191105Z 32018G25KT M02/M05 A3016 RMK A01 T10151054  RH  075%=      5-min Rain = 0
KRLS 191110Z 32019G25KT M02/M05 A3016 RMK A01 T10151054  RH  075%=      5-min Rain = 0
KRLS 191115Z 32019G26KT M02/M05 A3016 RMK A01 T10161054  RH  075%=      5-min Rain = 0
KRLS 191120Z 32020G25KT M02/M05 A3017 RMK A01 T10161054  RH  075%=      5-min Rain = 0
KRLS 191125Z 32017G23KT M02/M05 A3017 RMK A01 T10171054  RH  076%=      5-min Rain = 0
KRLS 191130Z 32017G23KT M02/M05 A3017 RMK A01 T10171053  RH  077%=      5-min Rain = 0
KRLS 191135Z 32019G24KT M02/M05 A3018 RMK A01 T10161053  RH  076%=      5-min Rain = 0
KRLS 191140Z 32017G24KT M02/M05 A3018 RMK A01 T10161054  RH  076%=      5-min Rain = 0
KRLS 191145Z 32016G22KT M02/M05 A3018 RMK A01 T10171054  RH  076%=      5-min Rain = 0
KRLS 191150Z 32017G23KT M02/M05 A3018 RMK A01 T10171054  RH  076%=      5-min Rain = 0
KRLS 191155Z 32018G25KT M02/M05 A3018 RMK A01 T10171054  RH  076%=      5-min Rain = 0
KRLS 191200Z 33017G23KT M02/M06 A3018 RMK A01 T10171055  RH  076%=      5-min Rain = 0
KRLS 191205Z 33016KT M02/M06 A3018 RMK A01 T10171055  RH  076%=      5-min Rain = 0
KRLS 191210Z 33016G21KT M02/M06 A3018 RMK A01 T10171055  RH  076%=      5-min Rain = 0
KRLS 191215Z 33017G25KT M02/M05 A3018 RMK A01 T10161054  RH  075%=      5-min Rain = 0
KRLS 191220Z 33016G21KT M02/M06 A3018 RMK A01 T10161055  RH  075%=      5-min Rain = 0
KRLS 191225Z 33014G21KT M02/M06 A3019 RMK A01 T10161055  RH  075%=      5-min Rain = 0
KRLS 191230Z 33014G20KT M02/M05 A3019 RMK A01 T10161054  RH  075%=      5-min Rain = 0
KRLS 191235Z 33013KT M02/M06 A3019 RMK A01 T10171055  RH  076%=      5-min Rain = 0
KRLS 191240Z 33014G19KT M02/M05 A3019 RMK A01 T10171054  RH  076%=      5-min Rain = 0
KRLS 191245Z 32016G22KT M02/M05 A3019 RMK A01 T10171054  RH  076%=      5-min Rain = 0
KRLS 191250Z 32016KT M02/M05 A3019 RMK A01 T10171054  RH  076%=      5-min Rain = 0
KRLS 191255Z 32015KT M02/M05 A3019 RMK A01 T10181054  RH  076%=      5-min Rain = 0
KRLS 191300Z 32016G21KT M02/M05 A302 RMK A01 T10181054  RH  077%=      5-min Rain = 0
KRLS 191305Z 33016KT M02/M05 A302 RMK A01 T10171054  RH  076%=      5-min Rain = 0
KRLS 191310Z 33016G21KT M02/M05 A302 RMK A01 T10161053  RH  076%=      5-min Rain = 0
KRLS 191315Z 32017G23KT M02/M05 A302 RMK A01 T10161053  RH  076%=      5-min Rain = 0
KRLS 191320Z 32017G22KT M02/M05 A302 RMK A01 T10171053  RH  077%=      5-min Rain = 0
KRLS 191325Z 32017G22KT M02/M05 A3021 RMK A01 T10161053  RH  076%=      5-min Rain = 0
KRLS 191330Z 32018KT M02/M05 A3021 RMK A01 T10171053  RH  076%=      5-min Rain = 0
KRLS 191335Z 32017KT M02/M05 A3021 RMK A01 T10171053  RH  076%=      5-min Rain = 0
KRLS 191340Z 32016G22KT M02/M05 A3021 RMK A01 T10171053  RH  076%=      5-min Rain = 0
KRLS 191345Z 32017G23KT M02/M05 A3022 RMK A01 T10171054  RH  076%=      5-min Rain = 0
KRLS 191350Z 32016KT M02/M05 A3022 RMK A01 T10181054  RH  076%=      5-min Rain = 0
KRLS 191355Z 32016G23KT M02/M05 A3022 RMK A01 T10181054  RH  076%=      5-min Rain = 0
KRLS 191400Z 32015G20KT M02/M05 A3023 RMK A01 T10181054  RH  077%=      5-min Rain = 0
KRLS 191405Z 32014KT M02/M05 A3023 RMK A01 T10181054  RH  077%=      5-min Rain = 0
KRLS 191410Z 32014KT M02/M05 A3024 RMK A01 T10191054  RH  077%=      5-min Rain = 0
KRLS 191415Z 32014KT M02/M05 A3024 RMK A01 T10181054  RH  076%=      5-min Rain = 0
KRLS 191420Z 31012KT M02/M05 A3024 RMK A01 T10181054  RH  077%=      5-min Rain = 0
KRLS 191425Z 31013KT M02/M05 A3025 RMK A01 T10181053  RH  077%=      5-min Rain = 0
KRLS 191430Z 32014G19KT M02/M05 A3025 RMK A01 T10161052  RH  076%=      5-min Rain = 0
KRLS 191435Z 32014KT M02/M05 A3025 RMK A01 T10151052  RH  076%=      5-min Rain = 0
KRLS 191440Z 32014KT M01/M05 A3026 RMK A01 T10141052  RH  076%=      5-min Rain = 0
KRLS 191445Z 32013KT M01/M05 A3026 RMK A01 T10131051  RH  076%=      5-min Rain = 0
KRLS 191450Z 33015G21KT M01/M05 A3026 RMK A01 T10121051  RH  075%=      5-min Rain = 0
KRLS 191455Z 33014KT M01/M05 A3026 RMK A01 T10101050  RH  075%=      5-min Rain = 0
KRLS 191500Z 33014G19KT M01/M05 A3027 RMK A01 T10081049  RH  074%=      5-min Rain = 0
KRLS 191505Z 33014G20KT M01/M05 A3027 RMK A01 T10051047  RH  074%=      5-min Rain = 0
KRLS 191510Z 33017KT M00/M05 A3027 RMK A01 T10031046  RH  073%=      5-min Rain = 0
KRLS 191515Z 33016G21KT M00/M05 A3028 RMK A01 T10011045  RH  073%=      5-min Rain = 0
KRLS 191520Z 33015G21KT 00/05 A3028 RMK A01 T00000-45  RH  072%=      5-min Rain = 0
KRLS 191525Z 33016G22KT 00/M04 A3029 RMK A01 T00021044  RH  072%=      5-min Rain = 0
KRLS 191530Z 33016G22KT 00/M04 A3029 RMK A01 T00041043  RH  071%=      5-min Rain = 0
KRLS 191535Z 33015G24KT 00/M04 A3029 RMK A01 T00041043  RH  071%=      5-min Rain = 0
KRLS 191540Z 33016G23KT 01/M04 A303 RMK A01 T00071042  RH  070%=      5-min Rain = 0
KRLS 191545Z 34017KT 01/M04 A303 RMK A01 T00081042  RH  070%=      5-min Rain = 0
KRLS 191550Z 33016G22KT 01/M04 A303 RMK A01 T00101041  RH  069%=      5-min Rain = 0
KRLS 191555Z 33015G21KT 01/M04 A303 RMK A01 T00111039  RH  070%=      5-min Rain = 0
KRLS 191600Z 33014G20KT 01/M04 A303 RMK A01 T00141036  RH  069%=      5-min Rain = 0
KRLS 191605Z 34013G19KT 02/M04 A303 RMK A01 T00171035  RH  069%=      5-min Rain = 0
KRLS 191610Z 34017G24KT 02/M04 A3031 RMK A01 T00171039  RH  067%=      5-min Rain = 0
KRLS 191615Z 33017G22KT 02/M04 A3031 RMK A01 T00191037  RH  067%=      5-min Rain = 0
KRLS 191620Z 34015KT 02/M04 A3031 RMK A01 T00221035  RH  066%=      5-min Rain = 0
KRLS 191625Z 34015G21KT 03/M03 A303 RMK A01 T00261034  RH  065%=      5-min Rain = 0
KRLS 191630Z 34016G24KT 03/M04 A3031 RMK A01 T00281035  RH  064%=      5-min Rain = 0
KRLS 191635Z 34016G23KT 03/M04 A3031 RMK A01 T00301035  RH  063%=      5-min Rain = 0
KRLS 191640Z 34015KT 03/M03 A3031 RMK A01 T00321034  RH  062%=      5-min Rain = 0
KRLS 191645Z 34017G25KT 04/M03 A3031 RMK A01 T00351034  RH  061%=      5-min Rain = 0
KRLS 191650Z 34016G23KT 04/M03 A3031 RMK A01 T00371032  RH  061%=      5-min Rain = 0
KRLS 191655Z 34017G22KT 04/M03 A3031 RMK A01 T00401033  RH  059%=      5-min Rain = 0
KRLS 191700Z 34018G25KT 04/M03 A3031 RMK A01 T00401034  RH  059%=      5-min Rain = 0
KRLS 191705Z 34019G24KT 04/M04 A3032 RMK A01 T00391036  RH  058%=      5-min Rain = 0
KRLS 191710Z 34020G25KT 04/M04 A3032 RMK A01 T00411036  RH  058%=      5-min Rain = 0
KRLS 191715Z 34019G26KT 04/M04 A3032 RMK A01 T00431035  RH  057%=      5-min Rain = 0
KRLS 191720Z 34019G27KT 05/M04 A3032 RMK A01 T00451035  RH  056%=      5-min Rain = 0
KRLS 191725Z 35020G28KT 05/M04 A3032 RMK A01 T00451036  RH  056%=      5-min Rain = 0
KRLS 191730Z 35020G27KT 05/M04 A3032 RMK A01 T00451036  RH  056%=      5-min Rain = 0
KRLS 191735Z 35019G25KT 05/M04 A3031 RMK A01 T00471036  RH  055%=      5-min Rain = 0
KRLS 191740Z 35016G22KT 05/M03 A3031 RMK A01 T00541032  RH  054%=      5-min Rain = 0
KRLS 191745Z 35018G23KT 05/M03 A3031 RMK A01 T00531034  RH  053%=      5-min Rain = 0
KRLS 191750Z 35019G24KT 05/M04 A3032 RMK A01 T00541036  RH  053%=      5-min Rain = 0
KRLS 191755Z 35016G22KT 06/M03 A3032 RMK A01 T00571033  RH  052%=      5-min Rain = 0
KRLS 191800Z 34021G29KT 06/M04 A3032 RMK A01 T00571037  RH  051%=      5-min Rain = 0
KRLS 191805Z 35019G24KT 06/M04 A3031 RMK A01 T00591038  RH  050%=      5-min Rain = 0
KRLS 191810Z 35019G25KT 06/M04 A3032 RMK A01 T00601039  RH  049%=      5-min Rain = 0
KRLS 191815Z 35019G25KT 06/M04 A3031 RMK A01 T00611039  RH  049%=      5-min Rain = 0
KRLS 191820Z 35018G24KT 06/M04 A3031 RMK A01 T00611040  RH  049%=      5-min Rain = 0
KRLS 191825Z 35018G26KT 06/M04 A3031 RMK A01 T00641038  RH  048%=      5-min Rain = 0
KRLS 191830Z 35018KT 06/M04 A303 RMK A01 T00641039  RH  048%=      5-min Rain = 0
KRLS 191835Z 35017G23KT 07/M04 A303 RMK A01 T00651038  RH  048%=      5-min Rain = 0
KRLS 191840Z 34016G21KT 07/M04 A303 RMK A01 T00661037  RH  048%=      5-min Rain = 0
KRLS 191845Z 33015G22KT 07/M03 A303 RMK A01 T00701034  RH  048%=      5-min Rain = 0
KRLS 191850Z 34014G22KT 07/M03 A3029 RMK A01 T00731033  RH  047%=      5-min Rain = 0
KRLS 191855Z 33017G23KT 07/M04 A3029 RMK A01 T00711037  RH  047%=      5-min Rain = 0
KRLS 191900Z 34016G21KT 08/M03 A3029 RMK A01 T00761034  RH  046%=      5-min Rain = 0
KRLS 191905Z 34015G22KT 08/M04 A3029 RMK A01 T00771036  RH  045%=      5-min Rain = 0
KRLS 191910Z 34017G22KT 08/M04 A3028 RMK A01 T00781038  RH  044%=      5-min Rain = 0
KRLS 191915Z 35018G23KT 08/M04 A3029 RMK A01 T00791041  RH  043%=      5-min Rain = 0
KRLS 191920Z 34016G23KT 08/M04 A3029 RMK A01 T00831039  RH  042%=      5-min Rain = 0
KRLS 191925Z 35019G26KT 08/M04 A3029 RMK A01 T00831043  RH  041%=      5-min Rain = 0
KRLS 191930Z 34015G20KT 08/M04 A3029 RMK A01 T00841039  RH  042%=      5-min Rain = 0
KRLS 191935Z 34016G22KT 09/M04 A3028 RMK A01 T00891039  RH  040%=      5-min Rain = 0
KRLS 191940Z 35016KT 09/M04 A3028 RMK A01 T00871042  RH  040%=      5-min Rain = 0
KRLS 191945Z 34016G23KT 09/M04 A3028 RMK A01 T00891039  RH  040%=      5-min Rain = 0
KRLS 191950Z 33017KT 09/M04 A3028 RMK A01 T00871041  RH  040%=      5-min Rain = 0
KRLS 191955Z 33015G23KT 09/M04 A3028 RMK A01 T00921036  RH  040%=      5-min Rain = 0
KRLS 192000Z 34014KT 09/M04 A3027 RMK A01 T00931037  RH  040%=      5-min Rain = 0
KRLS 192005Z 34013G19KT 09/M04 A3027 RMK A01 T00921037  RH  040%=      5-min Rain = 0
KRLS 192010Z 33015KT 09/M04 A3027 RMK A01 T00941037  RH  040%=      5-min Rain = 0
KRLS 192015Z 33015G22KT 09/M04 A3027 RMK A01 T00931039  RH  039%=      5-min Rain = 0
KRLS 192020Z 33017G23KT 10/M04 A3026 RMK A01 T00951043  RH  038%=      5-min Rain = 0
KRLS 192025Z 33018G24KT 10/M04 A3026 RMK A01 T00961043  RH  037%=      5-min Rain = 0
KRLS 192030Z 34016G21KT 10/M05 A3026 RMK A01 T00951045  RH  037%=      5-min Rain = 0
KRLS 192035Z 34016G23KT 10/M05 A3026 RMK A01 T00961045  RH  037%=      5-min Rain = 0
KRLS 192040Z 33017G22KT 10/M05 A3026 RMK A01 T00961046  RH  036%=      5-min Rain = 0
KRLS 192045Z 33018G23KT 10/M05 A3026 RMK A01 T00961047  RH  036%=      5-min Rain = 0
KRLS 192050Z 33014KT 10/M05 A3026 RMK A01 T00981046  RH  036%=      5-min Rain = 0
KRLS 192055Z 33015G22KT 10/M05 A3026 RMK A01 T00991046  RH  036%=      5-min Rain = 0
KRLS 192100Z 33017G22KT 10/M05 A3026 RMK A01 T00981048  RH  035%=      5-min Rain = 0
KRLS 192105Z 35017G24KT 10/M05 A3026 RMK A01 T01001046  RH  035%=      5-min Rain = 0
KRLS 192110Z 34015KT 10/M05 A3026 RMK A01 T00991048  RH  035%=      5-min Rain = 0
KRLS 192115Z 34015G23KT 10/M05 A3026 RMK A01 T01001048  RH  035%=      5-min Rain = 0
KRLS 192120Z 33016G22KT 10/M05 A3026 RMK A01 T00991050  RH  035%=      5-min Rain = 0
KRLS 192125Z 34017KT 10/M05 A3026 RMK A01 T01011050  RH  034%=      5-min Rain = 0
KRLS 192130Z 35016G23KT 10/M05 A3026 RMK A01 T01001052  RH  034%=      5-min Rain = 0
KRLS 192135Z 34015G22KT 10/M05 A3026 RMK A01 T00991052  RH  034%=      5-min Rain = 0
KRLS 192140Z 34016G21KT 10/M05 A3026 RMK A01 T01021051  RH  034%=      5-min Rain = 0
KRLS 192145Z 33014G20KT 10/M05 A3026 RMK A01 T01021049  RH  034%=      5-min Rain = 0
KRLS 192150Z 34017G22KT 10/M05 A3026 RMK A01 T01011052  RH  034%=      5-min Rain = 0
KRLS 192155Z 34013G19KT 10/M05 A3026 RMK A01 T01011050  RH  034%=      5-min Rain = 0
KRLS 192200Z 34015KT 10/M05 A3026 RMK A01 T01011052  RH  034%=      5-min Rain = 0
KRLS 192205Z 33015G21KT 10/M05 A3026 RMK A01 T01011052  RH  034%=      5-min Rain = 0
KRLS 192210Z 34015G22KT 10/M05 A3026 RMK A01 T01021052  RH  034%=      5-min Rain = 0
KRLS 192215Z 34016G21KT 10/M05 A3026 RMK A01 T01011053  RH  034%=      5-min Rain = 0
KRLS 192220Z 34016G22KT 10/M05 A3026 RMK A01 T01001053  RH  034%=      5-min Rain = 0
KRLS 192225Z 33015KT 10/M05 A3027 RMK A01 T01001053  RH  034%=      5-min Rain = 0
KRLS 192230Z 33014G20KT 10/M05 A3027 RMK A01 T01001052  RH  034%=      5-min Rain = 0
KRLS 192235Z 34015G21KT 10/M05 A3027 RMK A01 T00991052  RH  034%=      5-min Rain = 0
KRLS 192240Z 34015KT 10/M05 A3026 RMK A01 T00981052  RH  034%=      5-min Rain = 0
KRLS 192245Z 34014KT 10/M05 A3026 RMK A01 T00981049  RH  035%=      5-min Rain = 0
KRLS 192250Z 34013G18KT 10/M05 A3026 RMK A01 T00971050  RH  035%=      5-min Rain = 0
KRLS 192255Z 34013KT 10/M05 A3026 RMK A01 T00971050  RH  035%=      5-min Rain = 0
KRLS 192300Z 34015KT 10/M05 A3026 RMK A01 T00951052  RH  035%=      5-min Rain = 0
KRLS 192305Z 34012KT 10/M05 A3027 RMK A01 T00951051  RH  036%=      5-min Rain = 0
KRLS 192310Z 35013G19KT 09/M05 A3027 RMK A01 T00941052  RH  035%=      5-min Rain = 0
KRLS 192315Z 35012KT 09/M05 A3027 RMK A01 T00931052  RH  036%=      5-min Rain = 0
KRLS 192320Z 35011KT 09/M05 A3027 RMK A01 T00921052  RH  036%=      5-min Rain = 0
KRLS 192325Z 34011KT 09/M05 A3027 RMK A01 T00901052  RH  036%=      5-min Rain = 0
KRLS 192330Z 35011KT 09/M05 A3026 RMK A01 T00891052  RH  036%=      5-min Rain = 0
KRLS 192335Z 35010G15KT 09/M05 A3026 RMK A01 T00871052  RH  037%=      5-min Rain = 0
KRLS 192340Z 35010KT 09/M05 A3027 RMK A01 T00851052  RH  038%=      5-min Rain = 0
KRLS 192345Z 35010KT 08/M05 A3027 RMK A01 T00831053  RH  038%=      5-min Rain = 0
KRLS 192350Z 35009KT 08/M05 A3027 RMK A01 T00801053  RH  039%=      5-min Rain = 0
KRLS 192355Z 35009KT 08/M05 A3027 RMK A01 T00781054  RH  039%=      5-min Rain = 0
KRLS 200000Z 35008KT 07/M05 A3027 RMK A01 T00741054  RH  040%=      5-min Rain = 0
KRLS 200005Z 35010KT 07/M05 A3027 RMK A01 T00711054  RH  041%=      5-min Rain = 0
KRLS 200010Z 35010KT 07/M05 A3027 RMK A01 T00711054  RH  041%=      5-min Rain = 0
KRLS 200015Z 35009KT 07/M05 A3027 RMK A01 T00681054  RH  041%=      5-min Rain = 0
KRLS 200020Z 36008KT 07/M06 A3027 RMK A01 T00671055  RH  042%=      5-min Rain = 0
KRLS 200025Z 36006KT 06/M06 A3027 RMK A01 T00611055  RH  043%=      5-min Rain = 0
KRLS 200030Z 00007KT 06/M06 A3027 RMK A01 T00571055  RH  045%=      5-min Rain = 0
KRLS 200035Z 01007KT 05/M06 A3027 RMK A01 T00501056  RH  046%=      5-min Rain = 0
KRLS 200040Z 00006KT 05/M06 A3027 RMK A01 T00491055  RH  047%=      5-min Rain = 0
KRLS 200045Z 36007KT 05/M06 A3027 RMK A01 T00501055  RH  047%=      5-min Rain = 0
KRLS 200050Z 36006KT 05/M06 A3027 RMK A01 T00511055  RH  047%=      5-min Rain = 0
KRLS 200055Z 36006KT 05/M06 A3027 RMK A01 T00471055  RH  047%=      5-min Rain = 0
KRLS 200100Z 36006KT 04/M06 A3027 RMK A01 T00441055  RH  049%=      5-min Rain = 0
KRLS 200105Z 01006KT 04/M06 A3027 RMK A01 T00421056  RH  049%=      5-min Rain = 0
KRLS 200110Z 01005KT 04/M06 A3027 RMK A01 T00391057  RH  050%=      5-min Rain = 0
KRLS 200115Z 36004KT 04/M06 A3028 RMK A01 T00431056  RH  048%=      5-min Rain = 0
KRLS 200120Z 36004KT 04/M06 A3028 RMK A01 T00421057  RH  049%=      5-min Rain = 0
KRLS 200125Z 01005KT 04/M06 A3028 RMK A01 T00401057  RH  049%=      5-min Rain = 0
KRLS 200130Z 01006KT 04/M06 A3028 RMK A01 T00381057  RH  050%=      5-min Rain = 0
KRLS 200135Z 01006KT 03/M06 A3028 RMK A01 T00331058  RH  051%=      5-min Rain = 0
KRLS 200140Z 02006KT 03/M06 A3028 RMK A01 T00281062  RH  051%=      5-min Rain = 0
KRLS 200145Z 03006KT 02/M07 A3028 RMK A01 T00221066  RH  052%=      5-min Rain = 0
KRLS 200150Z 03004KT 01/M07 A3027 RMK A01 T00141073  RH  052%=      5-min Rain = 0
KRLS 200155Z 05003KT 02/M07 A3027 RMK A01 T00171065  RH  054%=      5-min Rain = 0
KRLS 200200Z 06003KT 02/M06 A3026 RMK A01 T00201062  RH  055%=      5-min Rain = 0
KRLS 200205Z 06004KT 02/M06 A3026 RMK A01 T00201062  RH  055%=      5-min Rain = 0
KRLS 200210Z 06004KT 02/M07 A3026 RMK A01 T00161065  RH  055%=      5-min Rain = 0
KRLS 200215Z 07003KT 01/M07 A3026 RMK A01 T00121067  RH  056%=      5-min Rain = 0
KRLS 200220Z 07003KT 01/M07 A3026 RMK A01 T00071071  RH  056%=      5-min Rain = 0
KRLS 200225Z 07002KT 00/M07 A3027 RMK A01 T00021073  RH  057%=      5-min Rain = 0
KRLS 200230Z 07001KT 00/M07 A3028 RMK A01 T00011069  RH  060%=      5-min Rain = 0
KRLS 200235Z 07002KT 00/M07 A3027 RMK A01 T00011066  RH  061%=      5-min Rain = 0
KRLS 200240Z 06001KT 00/M07 A3028 RMK A01 T00011066  RH  061%=      5-min Rain = 0
KRLS 200245Z 05002KT 00/M06 A3028 RMK A01 T00031061  RH  062%=      5-min Rain = 0
KRLS 200250Z 05002KT 00/M06 A3028 RMK A01 T00021058  RH  064%=      5-min Rain = 0
KRLS 200255Z 07003KT 00/M06 A3028 RMK A01 T00031060  RH  063%=      5-min Rain = 0
KRLS 200300Z 07003KT 01/M06 A3029 RMK A01 T00101060  RH  060%=      5-min Rain = 0
KRLS 200305Z 06003KT 01/M06 A3029 RMK A01 T00111060  RH  059%=      5-min Rain = 0
KRLS 200310Z 05003KT 01/M06 A3029 RMK A01 T00141060  RH  058%=      5-min Rain = 0
KRLS 200315Z 05003KT 01/M06 A3029 RMK A01 T00131059  RH  058%=      5-min Rain = 0
KRLS 200320Z 05002KT 01/M06 A3029 RMK A01 T00111061  RH  059%=      5-min Rain = 0
KRLS 200325Z 07002KT 00/M06 A3028 RMK A01 T00011056  RH  066%=      5-min Rain = 0
KRLS 200330Z 07003KT 00/M06 A3028 RMK A01 T00021059  RH  063%=      5-min Rain = 0
KRLS 200335Z 06002KT 01/M06 A3029 RMK A01 T00061061  RH  061%=      5-min Rain = 0
KRLS 200340Z 04002KT M00/M06 A303 RMK A01 T10031060  RH  066%=      5-min Rain = 0
KRLS 200345Z 06004KT M00/M06 A3028 RMK A01 T10011058  RH  066%=      5-min Rain = 0
KRLS 200350Z 08004KT 00/M06 A3027 RMK A01 T00031063  RH  062%=      5-min Rain = 0
KRLS 200355Z 10005KT 01/M06 A3027 RMK A01 T00051061  RH  061%=      5-min Rain = 0
KRLS 200400Z 10005KT 01/M06 A3028 RMK A01 T00061063  RH  060%=      5-min Rain = 0
KRLS 200405Z 11005KT 00/M06 A3028 RMK A01 T00041064  RH  060%=      5-min Rain = 0
KRLS 200410Z 09005KT M00/M07 A3027 RMK A01 T10021069  RH  061%=      5-min Rain = 0
KRLS 200415Z 09004KT M01/M07 A3028 RMK A01 T10071073  RH  061%=      5-min Rain = 0
KRLS 200420Z 10005KT M01/M07 A3028 RMK A01 T10091072  RH  062%=      5-min Rain = 0
KRLS 200425Z 10005KT M01/M08 A3028 RMK A01 T10121075  RH  062%=      5-min Rain = 0
KRLS 200430Z 11005KT M02/M08 A3029 RMK A01 T10161078  RH  063%=      5-min Rain = 0
KRLS 200435Z 10006KT M02/M08 A3028 RMK A01 T10181078  RH  063%=      5-min Rain = 0
KRLS 200440Z 10005KT M02/M08 A3028 RMK A01 T10181076  RH  065%=      5-min Rain = 0
KRLS 200445Z 11006KT M02/M08 A3028 RMK A01 T10191076  RH  065%=      5-min Rain = 0
KRLS 200450Z 11007KT M02/M07 A3028 RMK A01 T10151070  RH  066%=      5-min Rain = 0
KRLS 200455Z 11007KT M02/M07 A3028 RMK A01 T10161070  RH  066%=      5-min Rain = 0
KRLS 200500Z 10006KT M03/M08 A3028 RMK A01 T10251082  RH  064%=      5-min Rain = 0
KRLS 200505Z 11006KT M03/M08 A3028 RMK A01 T10291082  RH  067%=      5-min Rain = 0
KRLS 200510Z 12007KT M02/M07 A3029 RMK A01 T10221073  RH  068%=      5-min Rain = 0
KRLS 200515Z 12006KT M02/M07 A3029 RMK A01 T10161069  RH  067%=      5-min Rain = 0
KRLS 200520Z 15006KT M03/M08 A3029 RMK A01 T10251076  RH  068%=      5-min Rain = 0
KRLS 200525Z 17007KT M03/M07 A3029 RMK A01 T10321073  RH  073%=      5-min Rain = 0
KRLS 200530Z 18007KT M04/M08 A303 RMK A01 T10361075  RH  074%=      5-min Rain = 0
KRLS 200535Z 17005KT M03/M07 A303 RMK A01 T10331070  RH  076%=      5-min Rain = 0
KRLS 200540Z 16007KT M03/M07 A303 RMK A01 T10281066  RH  075%=      5-min Rain = 0
KRLS 200545Z 14006KT M03/M07 A303 RMK A01 T10271069  RH  073%=      5-min Rain = 0
KRLS 200550Z 14007KT M03/M07 A303 RMK A01 T10281072  RH  072%=      5-min Rain = 0
KRLS 200555Z 13006KT M03/M07 A3031 RMK A01 T10281072  RH  072%=      5-min Rain = 0

Page generated in 0.0098 seconds.